Portada
METAR-TAF:

METAR-TAF

Aeroports :

Aeroport Internacional de Bahrain

Bahrain, Bahrain

latitud: 26-16N, longitud: 050-39E, altitud: 2 m

Observació

L'informe es va fer fa 26 minuts, a les 19:00 UTC
Vent 3 kt del Nord/Nord-Oest
Temperatura 20°C
Humitat 60%
Pressió 1019 hPa
Visibilitat 10 km o més
sense núvols per sota de 1500 mi sense presència de cumulonimbus.

METAR: OBBI 181900Z 34003KT CAVOK 20/12 Q1019 NOSIG

Hora: 22:26 (19:26 UTC)

Pronòstic

L'informe es va fer fa 2 hores i 26 minuts, a les 17:00 UTC
Pronòstic vàlid del 18 a les 18 UTC al 20 a les 00 UTC
Vent 6 kt del Nord
Visibilitat 10 km o més
sense núvols per sota de 1500 mi sense presència de cumulonimbus.
Evolucionant progressivament
l' 19 a les 04 UTC al 19 a les 06 UTC
Vent 17 kt del Nord/Nord-Oest
Evolucionant progressivament
l' 19 a les 16 UTC al 19 a les 18 UTC
Vent 7 kt del Nord/Nord-Oest

TAF: OBBI 181700Z 1818/2000 36006KT CAVOK BECMG 1904/1906 33017KT BECMG 1916/1918 33007KT

Observacions i pronòstics meteorològics de més de 4000 aeroports (METAR i TAF).

Les estacions disponibles són els punts grocs i vermells al mapa.

Posi el ratolí al punt desitjat per veure el nom de l'estació.

Feu clic per veure les observacions i els pronòstics meteorològics.

Per canviar el mapa: feu clic els botons verds amb una creu de color negre per apropar; al botó verd amb un guió per allunyar la imatge; o en les fletxes verdes per a mapes adjacents.


METAR-TAF: